Time;durP1;ratioP1;P1;durP2;ratioP2;P2;SDS_P1;SDS_P2;PMS_P1;PMS_P2;Temp;Humidity;BMP_temperature;BMP_pressure;BME280_temperature;BME280_humidity;BME280_pressure;Samples;Min_cycle;Max_cycle;Signal;HPM_P1;HPM_P2
2021/03/20 00:01:48;;;;;;;0.70;0.70;;;;;;;-1.23;79.39;102284.38;5080497;28;20234;-76
2021/03/20 00:04:16;;;;;;;0.40;0.30;;;;;;;-1.08;79.65;102282.56;5084028;28;20572;-76
2021/03/20 00:06:44;;;;;;;0.40;0.30;;;;;;;-1.01;78.15;102285.31;5082470;28;20445;-76
2021/03/20 00:09:14;;;;;;;0.40;0.30;;;;;;;-0.97;78.29;102288.44;5088397;28;20441;-76
2021/03/20 00:11:43;;;;;;;0.40;0.30;;;;;;;-0.91;78.34;102282.41;5085014;28;20229;-76
2021/03/20 00:14:12;;;;;;;0.40;0.30;;;;;;;-0.87;78.89;102289.81;5081712;28;20807;-76
2021/03/20 00:16:39;;;;;;;0.40;0.30;;;;;;;-0.87;78.85;102284.50;5082631;28;20812;-76
2021/03/20 00:19:05;;;;;;;0.40;0.30;;;;;;;-0.83;78.64;102287.63;5080513;28;20450;-76
2021/03/20 00:21:31;;;;;;;0.40;0.30;;;;;;;-0.83;78.57;102277.00;5090580;28;20453;-76
2021/03/20 00:23:57;;;;;;;0.40;0.30;;;;;;;-0.89;77.80;102283.84;5088553;28;20485;-76
2021/03/20 00:26:23;;;;;;;0.40;0.30;;;;;;;-0.80;77.68;102293.41;5090542;28;20438;-76
2021/03/20 00:28:51;;;;;;;0.40;0.30;;;;;;;-0.77;77.76;102287.72;5092005;28;20448;-76
2021/03/20 00:31:18;;;;;;;0.40;0.30;;;;;;;-0.78;78.69;102280.75;5090785;28;20464;-76
2021/03/20 00:33:44;;;;;;;0.50;0.50;;;;;;;-0.80;78.11;102272.13;5090272;28;20435;-76
2021/03/20 00:36:13;;;;;;;0.40;0.30;;;;;;;-0.77;78.51;102266.44;5093713;28;20444;-76
2021/03/20 00:38:40;;;;;;;0.40;0.30;;;;;;;-0.71;78.75;102280.81;5093209;28;20805;-76
2021/03/20 00:41:07;;;;;;;0.40;0.30;;;;;;;-0.64;79.22;102286.25;5093920;28;20456;-76
2021/03/20 00:43:33;;;;;;;0.40;0.30;;;;;;;-0.68;78.48;102299.09;5091873;28;20511;-76
2021/03/20 00:45:59;;;;;;;0.40;0.30;;;;;;;-0.73;78.17;102308.63;5091505;28;20426;-76
2021/03/20 00:48:30;;;;;;;0.40;0.30;;;;;;;-0.74;78.42;102301.66;5090576;28;20445;-76
2021/03/20 00:50:56;;;;;;;0.40;0.30;;;;;;;-0.66;78.84;102299.75;5113280;22;20482;-63
2021/03/20 00:53:23;;;;;;;0.40;0.30;;;;;;;-0.65;78.10;102292.59;5056173;28;20438;-63
2021/03/20 00:55:50;;;;;;;0.40;0.30;;;;;;;-0.64;78.96;102291.56;5055995;28;20473;-64
2021/03/20 00:58:21;;;;;;;0.40;0.30;;;;;;;-0.72;78.51;102294.31;5055897;28;20446;-64
2021/03/20 01:00:48;;;;;;;0.40;0.30;;;;;;;-0.76;78.66;102302.66;5055823;28;20438;-63
2021/03/20 01:03:14;;;;;;;0.40;0.30;;;;;;;-0.77;79.02;102298.34;5055906;28;20948;-64
2021/03/20 01:05:40;;;;;;;0.40;0.30;;;;;;;-0.77;78.69;102301.00;5055910;28;20493;-63
2021/03/20 01:08:06;;;;;;;0.50;0.40;;;;;;;-0.72;78.91;102283.69;5055585;28;20943;-63
2021/03/20 01:10:33;;;;;;;0.40;0.30;;;;;;;-0.67;78.93;102274.13;5056050;28;20444;-64
2021/03/20 01:12:59;;;;;;;0.40;0.30;;;;;;;-0.63;78.19;102277.25;5055790;28;20452;-64
2021/03/20 01:15:25;;;;;;;0.50;0.40;;;;;;;-0.69;78.99;102284.13;5055562;28;20469;-63
2021/03/20 01:17:51;;;;;;;0.40;0.40;;;;;;;-0.74;78.49;102283.88;5055415;28;20442;-63
2021/03/20 01:20:17;;;;;;;0.40;0.30;;;;;;;-0.74;79.60;102280.38;5055306;28;20434;-63
2021/03/20 01:22:44;;;;;;;0.40;0.30;;;;;;;-0.70;79.91;102279.84;5055624;28;20438;-63
2021/03/20 01:25:11;;;;;;;0.40;0.30;;;;;;;-0.72;79.12;102278.34;5055475;28;20509;-63
2021/03/20 01:27:37;;;;;;;0.40;0.30;;;;;;;-0.95;80.34;102279.28;5055241;28;20438;-61
2021/03/20 01:30:05;;;;;;;0.40;0.30;;;;;;;-0.94;80.72;102278.25;5055367;28;20441;-64
2021/03/20 01:32:31;;;;;;;0.40;0.30;;;;;;;-0.94;80.74;102275.59;5055390;28;20515;-64
2021/03/20 01:34:57;;;;;;;0.40;0.30;;;;;;;-0.88;81.08;102279.38;5054921;28;21013;-64
2021/03/20 01:37:23;;;;;;;0.40;0.30;;;;;;;-0.95;80.87;102276.63;5055325;28;20488;-63
2021/03/20 01:39:50;;;;;;;1.63;1.53;;;;;;;-1.03;81.48;102279.34;5054879;28;20500;-63
2021/03/20 01:42:16;;;;;;;0.40;0.30;;;;;;;-0.93;81.49;102261.31;5055112;28;20446;-63
2021/03/20 01:44:42;;;;;;;0.40;0.30;;;;;;;-0.90;81.36;102276.06;5054879;28;20490;-63
2021/03/20 01:47:14;;;;;;;0.40;0.30;;;;;;;-0.92;80.98;102268.28;5055071;28;20439;-63
2021/03/20 01:49:43;;;;;;;0.40;0.30;;;;;;;-0.91;81.24;102277.91;5055147;28;20493;-63
2021/03/20 01:52:19;;;;;;;0.40;0.30;;;;;;;-1.04;81.68;102270.56;5054843;28;20454;-63
2021/03/20 01:54:53;;;;;;;0.40;0.30;;;;;;;-1.03;81.76;102266.88;5054789;28;20434;-63
2021/03/20 01:57:24;;;;;;;0.40;0.30;;;;;;;-0.88;82.40;102261.59;5054855;28;20415;-63
2021/03/20 01:59:50;;;;;;;0.40;0.30;;;;;;;-0.89;82.26;102270.56;5054760;28;20422;-64
2021/03/20 02:02:16;;;;;;;0.40;0.30;;;;;;;-0.81;83.02;102265.16;5054371;28;20446;-64
2021/03/20 02:04:43;;;;;;;0.50;0.50;;;;;;;-0.68;82.76;102269.81;5054572;28;20482;-64
2021/03/20 02:07:09;;;;;;;0.40;0.30;;;;;;;-0.64;82.31;102271.09;5054630;28;20966;-63
2021/03/20 02:09:36;;;;;;;0.40;0.30;;;;;;;-0.56;82.30;102259.53;5054574;28;20446;-64
2021/03/20 02:12:17;;;;;;;0.50;0.40;;;;;;;-0.60;81.40;102256.41;5054676;28;20454;-64
2021/03/20 02:14:50;;;;;;;0.47;0.47;;;;;;;-0.54;81.52;102268.16;5054495;28;20446;-63
2021/03/20 02:17:25;;;;;;;0.40;0.30;;;;;;;-0.51;81.63;102265.94;5054325;28;20414;-63
2021/03/20 02:20:16;;;;;;;0.40;0.30;;;;;;;-0.48;81.77;102270.09;5054601;28;20422;-64
2021/03/20 02:23:06;;;;;;;0.40;0.30;;;;;;;-0.42;81.50;102258.69;5054563;28;20426;-63
2021/03/20 02:26:03;;;;;;;0.40;0.30;;;;;;;-0.38;80.61;102264.47;5050700;28;20474;-64
2021/03/20 02:28:59;;;;;;;0.40;0.30;;;;;;;-0.41;79.62;102270.97;5054400;28;20188;-64
2021/03/20 02:32:05;;;;;;;0.40;0.37;;;;;;;-0.45;79.54;102264.38;5054314;28;20434;-63
2021/03/20 02:34:39;;;;;;;0.40;0.30;;;;;;;-0.55;80.60;102247.88;4986572;28;20457;-63
2021/03/20 02:37:10;;;;;;;0.40;0.30;;;;;;;-0.52;80.36;102258.97;5054235;28;20429;-62
2021/03/20 02:39:46;;;;;;;0.40;0.30;;;;;;;-0.54;81.09;102255.66;5054084;28;20430;-64
2021/03/20 02:42:21;;;;;;;0.40;0.30;;;;;;;-0.44;81.10;102247.41;5054111;28;20434;-63
2021/03/20 02:44:55;;;;;;;0.40;0.30;;;;;;;-0.46;80.60;102249.41;5053870;28;20477;-62
2021/03/20 02:47:25;;;;;;;0.40;0.30;;;;;;;-0.40;80.04;102254.00;5053812;28;20903;-63
2021/03/20 02:49:59;;;;;;;0.40;0.30;;;;;;;-0.47;80.11;102265.59;5053897;28;20498;-63
2021/03/20 02:52:31;;;;;;;0.40;0.30;;;;;;;-0.47;80.57;102254.94;5053818;28;20465;-63
2021/03/20 02:55:03;;;;;;;1.07;0.70;;;;;;;-0.57;80.90;102258.72;5053810;28;20486;-63
2021/03/20 02:57:34;;;;;;;0.67;0.67;;;;;;;-0.61;82.39;102260.09;5053821;28;20480;-61
2021/03/20 03:00:05;;;;;;;0.40;0.30;;;;;;;-0.57;82.28;102260.56;5053408;28;20423;-60
2021/03/20 03:02:34;;;;;;;0.40;0.30;;;;;;;-0.48;81.72;102261.28;5053628;28;20435;-61
2021/03/20 03:05:08;;;;;;;0.40;0.40;;;;;;;-0.45;80.55;102255.56;5053422;28;20489;-62
2021/03/20 03:07:40;;;;;;;0.40;0.30;;;;;;;-0.41;80.45;102257.66;5053059;28;20928;-63
2021/03/20 03:10:10;;;;;;;0.40;0.30;;;;;;;-0.42;80.62;102261.34;5053286;28;20437;-64
2021/03/20 03:12:39;;;;;;;0.40;0.30;;;;;;;-0.40;80.53;102261.16;5052721;28;20431;-63
2021/03/20 03:15:09;;;;;;;0.40;0.30;;;;;;;-0.44;81.47;102255.41;5053271;28;20454;-64
2021/03/20 03:17:38;;;;;;;0.43;0.33;;;;;;;-0.38;80.83;102254.63;5053403;28;20442;-63
2021/03/20 03:20:09;;;;;;;0.40;0.30;;;;;;;-0.31;79.95;102244.06;5053355;28;20438;-64
2021/03/20 03:22:41;;;;;;;0.40;0.30;;;;;;;-0.43;80.18;102245.56;5053326;28;20531;-64
2021/03/20 03:25:12;;;;;;;0.40;0.30;;;;;;;-0.43;80.71;102241.06;5053074;28;20605;-64
2021/03/20 03:27:41;;;;;;;0.40;0.30;;;;;;;-0.35;80.65;102253.47;5053320;28;20418;-62
2021/03/20 03:30:13;;;;;;;0.40;0.30;;;;;;;-0.29;80.95;102261.50;5053270;28;20207;-63
2021/03/20 03:32:45;;;;;;;0.40;0.30;;;;;;;-0.27;80.51;102267.47;5053079;28;20423;-63
2021/03/20 03:35:18;;;;;;;0.40;0.30;;;;;;;-0.35;81.08;102266.75;5052926;28;20462;-64
2021/03/20 03:37:49;;;;;;;0.50;0.30;;;;;;;-0.38;80.45;102265.28;5052804;28;20427;-62
2021/03/20 03:40:20;;;;;;;0.40;0.30;;;;;;;-0.57;80.75;102271.19;5053053;28;20437;-64
2021/03/20 03:42:47;;;;;;;0.40;0.30;;;;;;;-0.57;81.19;102273.88;5052988;28;20801;-64
2021/03/20 03:45:14;;;;;;;0.40;0.40;;;;;;;-0.58;81.49;102270.34;5052512;28;20517;-63
2021/03/20 03:47:42;;;;;;;0.40;0.30;;;;;;;-0.51;81.96;102275.78;5052861;28;20595;-62
2021/03/20 03:50:13;;;;;;;0.40;0.30;;;;;;;-0.50;82.34;102272.09;5052937;28;20206;-63
2021/03/20 03:52:40;;;;;;;0.40;0.30;;;;;;;-0.39;82.23;102268.16;5052604;28;20480;-63
2021/03/20 03:55:08;;;;;;;0.40;0.30;;;;;;;-0.37;81.63;102282.91;5052684;28;20800;-65
2021/03/20 03:57:51;;;;;;;0.40;0.30;;;;;;;-0.31;81.18;102287.50;5052903;28;20468;-64
2021/03/20 04:00:25;;;;;;;0.40;0.30;;;;;;;-0.41;81.16;102286.94;5052674;28;20458;-64
2021/03/20 04:03:06;;;;;;;0.40;0.30;;;;;;;-0.37;80.77;102277.56;5052833;28;20421;-64
2021/03/20 04:05:39;;;;;;;0.40;0.30;;;;;;;-0.37;80.69;102266.94;5052533;28;20509;-63
2021/03/20 04:08:16;;;;;;;0.40;0.30;;;;;;;-0.33;80.50;102273.53;5052745;28;20430;-64
2021/03/20 04:10:48;;;;;;;0.40;0.30;;;;;;;-0.31;80.23;102265.34;5052799;28;20475;-64
2021/03/20 04:13:34;;;;;;;0.40;0.30;;;;;;;-0.34;79.55;102271.88;5052683;28;20426;-64
2021/03/20 04:16:07;;;;;;;0.40;0.30;;;;;;;-0.35;80.55;102270.25;5052579;28;20488;-64
2021/03/20 04:18:46;;;;;;;0.40;0.30;;;;;;;-0.28;80.34;102268.47;5052400;28;20930;-64
2021/03/20 04:21:26;;;;;;;0.40;0.30;;;;;;;-0.33;81.02;102268.22;5052576;28;20461;-63
2021/03/20 04:24:02;;;;;;;0.40;0.30;;;;;;;-0.37;80.46;102266.94;5053831;28;20469;-63
2021/03/20 04:26:34;;;;;;;0.40;0.30;;;;;;;-0.47;80.83;102268.25;5056712;28;20470;-64
2021/03/20 04:29:07;;;;;;;0.40;0.30;;;;;;;-0.42;81.33;102261.34;5056645;28;20433;-63
2021/03/20 04:31:38;;;;;;;0.40;0.30;;;;;;;-0.34;80.51;102261.25;5056455;28;20437;-64
2021/03/20 04:34:12;;;;;;;0.53;0.53;;;;;;;-0.33;80.69;102260.22;5056545;28;20419;-64
2021/03/20 04:36:42;;;;;;;0.40;0.30;;;;;;;-0.28;80.82;102259.66;5082438;22;20459;-67
2021/03/20 04:39:14;;;;;;;0.60;0.50;;;;;;;-0.27;80.31;102259.50;5095114;28;20479;-71
2021/03/20 04:41:40;;;;;;;0.40;0.40;;;;;;;-0.22;80.09;102256.25;5096951;28;20424;-71
2021/03/20 04:44:07;;;;;;;0.40;0.30;;;;;;;-0.25;80.63;102264.63;5097595;28;20484;-72
2021/03/20 04:46:35;;;;;;;0.40;0.30;;;;;;;-0.30;81.07;102257.19;5097031;28;20451;-71
2021/03/20 04:49:12;;;;;;;0.40;0.30;;;;;;;-0.24;81.51;102265.44;5076776;28;20434;-71
2021/03/20 04:51:43;;;;;;;0.40;0.40;;;;;;;-0.34;82.03;102269.22;5076686;28;20245;-70
2021/03/20 04:54:13;;;;;;;0.40;0.30;;;;;;;-0.26;81.99;102263.81;5076610;28;20797;-71
2021/03/20 04:56:45;;;;;;;0.40;0.30;;;;;;;-0.40;82.48;102269.13;5076354;28;20436;-71
2021/03/20 04:59:21;;;;;;;0.40;0.30;;;;;;;-0.27;82.41;102266.63;5076129;28;20891;-71
2021/03/20 05:01:49;;;;;;;0.60;0.60;;;;;;;-0.22;81.94;102271.38;5076380;28;20429;-71
2021/03/20 05:04:23;;;;;;;0.40;0.30;;;;;;;-0.16;82.10;102271.47;5076241;28;20481;-71
2021/03/20 05:06:51;;;;;;;0.40;0.30;;;;;;;-0.07;81.42;102275.66;5075968;28;20499;-70
2021/03/20 05:09:21;;;;;;;0.40;0.30;;;;;;;-0.09;80.79;102264.41;5076260;28;20437;-69
2021/03/20 05:11:57;;;;;;;0.40;0.30;;;;;;;-0.13;81.77;102278.28;5076330;28;20430;-69
2021/03/20 05:14:36;;;;;;;0.40;0.30;;;;;;;-0.16;82.24;102278.66;5075909;28;20926;-69
2021/03/20 05:17:07;;;;;;;0.40;0.30;;;;;;;-0.09;81.94;102269.72;5076106;28;20457;-69
2021/03/20 05:19:32;;;;;;;0.40;0.30;;;;;;;-0.09;80.83;102279.53;5075709;28;20942;-69
2021/03/20 05:21:58;;;;;;;0.50;0.50;;;;;;;-0.13;80.88;102270.28;5075660;28;20445;-71
2021/03/20 05:24:27;;;;;;;0.70;0.57;;;;;;;-0.07;81.10;102272.19;5075914;28;20480;-70
2021/03/20 05:26:55;;;;;;;0.50;0.50;;;;;;;-0.08;80.92;102276.69;5075815;28;20440;-70
2021/03/20 05:29:21;;;;;;;0.40;0.30;;;;;;;-0.02;81.13;102275.09;5075831;28;20453;-70
2021/03/20 05:31:47;;;;;;;0.40;0.30;;;;;;;0.01;80.61;102272.06;5075896;28;20445;-70
2021/03/20 05:34:20;;;;;;;0.40;0.30;;;;;;;0.00;80.89;102286.41;5075867;28;20444;-67
2021/03/20 05:36:47;;;;;;;0.40;0.30;;;;;;;-0.03;81.49;102290.28;5075002;28;20490;-69
2021/03/20 05:39:14;;;;;;;0.80;0.50;;;;;;;-0.05;81.09;102280.81;5075685;28;20440;-70
2021/03/20 05:41:53;;;;;;;0.40;0.30;;;;;;;-0.04;81.18;102277.16;5075654;28;20441;-70
2021/03/20 05:44:37;;;;;;;0.40;0.30;;;;;;;-0.01;81.15;102279.41;5075248;28;20993;-70
2021/03/20 05:47:10;;;;;;;0.40;0.30;;;;;;;-0.03;81.52;102286.78;5075500;28;20465;-69
2021/03/20 05:49:46;;;;;;;0.60;0.50;;;;;;;-0.05;81.99;102291.47;5075295;28;20980;-68
2021/03/20 05:52:33;;;;;;;0.63;0.63;;;;;;;-0.03;82.23;102292.09;5075232;28;20797;-68
2021/03/20 05:55:16;;;;;;;0.93;0.80;;;;;;;0.03;81.90;102288.69;5075424;28;20425;-68
2021/03/20 05:57:54;;;;;;;0.40;0.30;;;;;;;-0.07;82.09;102288.16;5075290;28;20478;-66
2021/03/20 06:00:26;;;;;;;0.40;0.30;;;;;;;-0.05;81.47;102289.63;5075383;28;20426;-68
2021/03/20 06:03:18;;;;;;;0.40;0.30;;;;;;;-0.04;81.81;102287.81;5075281;28;20422;-68
2021/03/20 06:05:50;;;;;;;0.57;0.40;;;;;;;-0.07;81.22;102294.31;5074893;28;20461;-68
2021/03/20 06:08:42;;;;;;;0.40;0.40;;;;;;;-0.09;81.82;102293.69;5075174;28;20484;-67
2021/03/20 06:11:18;;;;;;;2.00;0.97;;;;;;;-0.19;82.20;102306.47;5072389;28;20832;-68
2021/03/20 06:14:02;;;;;;;0.90;0.90;;;;;;;-0.14;82.19;102297.91;5075090;28;20426;-67
2021/03/20 06:16:31;;;;;;;0.60;0.53;;;;;;;-0.11;82.62;102301.03;5074971;28;20425;-67
2021/03/20 06:19:30;;;;;;;0.40;0.30;;;;;;;0.02;82.37;102303.03;5074808;28;20465;-69
2021/03/20 06:22:18;;;;;;;0.80;0.40;;;;;;;0.09;82.06;102309.25;5074895;28;20432;-68
2021/03/20 06:25:15;;;;;;;0.40;0.40;;;;;;;0.21;81.93;102314.88;5074779;28;20538;-68
2021/03/20 06:27:46;;;;;;;0.40;0.40;;;;;;;0.29;81.64;102316.63;5074649;28;20457;-66
2021/03/20 06:30:28;;;;;;;0.40;0.30;;;;;;;0.30;80.71;102318.25;5074704;28;20425;-67
2021/03/20 06:32:58;;;;;;;0.40;0.30;;;;;;;0.35;81.01;102307.84;5074716;28;20491;-67
2021/03/20 06:35:34;;;;;;;0.40;0.30;;;;;;;0.42;81.10;102311.41;5074673;28;20487;-67
2021/03/20 06:38:02;;;;;;;0.40;0.30;;;;;;;0.37;80.18;102300.50;5074234;28;20499;-68
2021/03/20 06:40:45;;;;;;;0.50;0.40;;;;;;;0.34;80.29;102301.69;5074570;28;20442;-67
2021/03/20 06:43:13;;;;;;;0.50;0.40;;;;;;;0.36;80.59;102302.34;5074486;28;20425;-68
2021/03/20 06:45:40;;;;;;;1.07;0.60;;;;;;;0.35;80.52;102299.84;5074316;28;20488;-67
2021/03/20 06:48:14;;;;;;;3.80;1.17;;;;;;;0.33;80.61;102294.72;5073976;28;20477;-68
2021/03/20 06:50:44;;;;;;;0.40;0.30;;;;;;;0.27;80.21;102290.16;5074263;28;20418;-67
2021/03/20 06:53:13;;;;;;;0.40;0.30;;;;;;;0.15;80.25;102294.34;5074285;28;20418;-68
2021/03/20 06:55:41;;;;;;;0.40;0.30;;;;;;;0.22;80.40;102293.41;5074192;28;20437;-68
2021/03/20 06:58:17;;;;;;;0.40;0.30;;;;;;;0.20;80.24;102298.09;5073712;28;20821;-69
2021/03/20 07:00:44;;;;;;;0.40;0.30;;;;;;;0.17;79.75;102285.13;5074152;28;20429;-68
2021/03/20 07:03:48;;;;;;;0.70;0.53;;;;;;;0.05;79.30;102281.34;5074008;28;20437;-68
2021/03/20 07:06:22;;;;;;;0.83;0.50;;;;;;;0.02;79.29;102276.38;5074198;28;20425;-68
2021/03/20 07:08:52;;;;;;;0.40;0.30;;;;;;;0.05;79.68;102275.19;5074065;28;20454;-67
2021/03/20 07:11:26;;;;;;;0.60;0.43;;;;;;;0.17;79.77;102268.31;5073921;28;20453;-69
2021/03/20 07:13:55;;;;;;;0.40;0.33;;;;;;;0.23;77.66;102272.91;5073974;28;20438;-68
2021/03/20 07:16:23;;;;;;;1.70;0.90;;;;;;;0.29;77.42;102273.97;5073837;28;20449;-68
2021/03/20 07:18:50;;;;;;;0.40;0.30;;;;;;;0.33;76.31;102283.25;5073783;28;20561;-68
2021/03/20 07:21:34;;;;;;;0.60;0.60;;;;;;;0.42;75.63;102276.75;5073728;28;20445;-67
2021/03/20 07:24:07;;;;;;;1.57;0.60;;;;;;;0.35;74.75;102276.69;5073657;28;20471;-68
2021/03/20 07:26:49;;;;;;;0.40;0.30;;;;;;;0.47;74.38;102277.00;5073656;28;20430;-69
2021/03/20 07:29:16;;;;;;;0.40;0.30;;;;;;;0.50;72.67;102277.47;5073361;28;20914;-67
2021/03/20 07:31:55;;;;;;;0.40;0.27;;;;;;;0.66;72.89;102284.34;5073612;28;20441;-67
2021/03/20 07:34:23;;;;;;;0.40;0.30;;;;;;;0.72;71.22;102275.59;5073523;28;20437;-69
2021/03/20 07:37:02;;;;;;;0.40;0.30;;;;;;;0.83;67.30;102278.72;5073262;28;20449;-70
2021/03/20 07:39:38;;;;;;;0.40;0.30;;;;;;;0.88;65.74;102286.97;5073566;28;20469;-70
2021/03/20 07:42:06;;;;;;;0.40;0.30;;;;;;;0.79;65.76;102288.94;5073507;28;20434;-70
2021/03/20 07:44:49;;;;;;;0.83;0.83;;;;;;;0.84;64.92;102286.56;5073418;28;20513;-70
2021/03/20 07:47:18;;;;;;;0.40;0.30;;;;;;;0.82;64.24;102287.75;5073361;28;20460;-70
2021/03/20 07:49:44;;;;;;;0.40;0.30;;;;;;;1.07;65.16;102285.47;5074637;28;20441;-71
2021/03/20 07:52:25;;;;;;;0.40;0.30;;;;;;;1.33;63.66;102292.78;5074195;28;20502;-70
2021/03/20 07:55:06;;;;;;;0.43;0.40;;;;;;;1.46;61.06;102284.84;5073191;28;20925;-70
2021/03/20 07:57:32;;;;;;;1.60;1.50;;;;;;;1.56;60.72;102290.66;5072938;28;21033;-69
2021/03/20 07:59:59;;;;;;;0.50;0.50;;;;;;;1.62;60.82;102284.50;5072537;28;20449;-70
2021/03/20 08:02:29;;;;;;;0.47;0.33;;;;;;;1.76;61.07;102299.56;5073359;28;20445;-69
2021/03/20 08:04:59;;;;;;;0.50;0.40;;;;;;;1.86;61.85;102301.88;5073096;28;20556;-70
2021/03/20 08:07:32;;;;;;;0.50;0.50;;;;;;;2.05;60.57;102308.31;5073063;28;20464;-69
2021/03/20 08:10:27;;;;;;;0.40;0.30;;;;;;;2.07;58.99;102305.41;5073325;28;20437;-71
2021/03/20 08:13:02;;;;;;;0.40;0.30;;;;;;;2.03;58.62;102302.31;5059603;28;20452;-70
2021/03/20 08:15:33;;;;;;;0.90;0.90;;;;;;;2.21;59.27;102313.28;5073138;28;20424;-70
2021/03/20 08:18:17;;;;;;;0.40;0.33;;;;;;;2.26;58.02;102308.16;5073176;28;20469;-71
2021/03/20 08:20:56;;;;;;;0.40;0.30;;;;;;;2.26;57.54;102316.16;5073142;28;20429;-70
2021/03/20 08:23:43;;;;;;;0.50;0.40;;;;;;;2.37;57.17;102308.56;5072669;28;20432;-70
2021/03/20 08:26:19;;;;;;;1.00;0.83;;;;;;;2.40;57.37;102313.53;5072968;28;20428;-70
2021/03/20 08:28:50;;;;;;;0.40;0.30;;;;;;;2.48;58.29;102303.44;5072713;28;20974;-69
2021/03/20 08:31:40;;;;;;;0.50;0.40;;;;;;;2.66;56.82;102312.72;5073117;28;20433;-69
2021/03/20 08:34:29;;;;;;;0.40;0.30;;;;;;;2.71;54.41;102307.56;5073013;28;20425;-71
2021/03/20 08:37:13;;;;;;;0.40;0.40;;;;;;;2.72;55.66;102310.03;5072737;28;20433;-71
2021/03/20 08:39:50;;;;;;;0.40;0.40;;;;;;;2.84;53.80;102306.75;5072959;28;20430;-70
2021/03/20 08:42:28;;;;;;;0.40;0.30;;;;;;;3.03;54.40;102304.03;5073020;28;20430;-71
2021/03/20 08:45:08;;;;;;;0.50;0.40;;;;;;;3.22;53.42;102302.34;5072756;28;20468;-72
2021/03/20 08:47:54;;;;;;;0.40;0.30;;;;;;;3.18;51.23;102300.31;5072689;28;20492;-69
2021/03/20 08:50:30;;;;;;;0.40;0.30;;;;;;;3.22;52.00;102302.34;5072177;28;20454;-71
2021/03/20 08:53:04;;;;;;;0.40;0.27;;;;;;;3.26;50.30;102303.56;5072689;28;20502;-69
2021/03/20 08:55:54;;;;;;;0.60;0.40;;;;;;;3.32;49.82;102295.72;5072579;28;20433;-69
2021/03/20 08:58:44;;;;;;;0.40;0.30;;;;;;;3.50;47.53;102309.31;5072550;28;20446;-70
2021/03/20 09:01:28;;;;;;;0.40;0.30;;;;;;;3.59;47.25;102308.03;5072509;28;20429;-70
2021/03/20 09:03:59;;;;;;;0.40;0.30;;;;;;;3.84;47.83;102305.44;5072071;28;20907;-70
2021/03/20 09:06:32;;;;;;;0.40;0.30;;;;;;;3.85;47.14;102306.25;5072204;28;20430;-70
2021/03/20 09:09:03;;;;;;;1.70;0.50;;;;;;;3.90;47.46;102314.50;5072375;28;20465;-70
2021/03/20 09:11:38;;;;;;;0.40;0.30;;;;;;;3.61;47.05;102322.03;5074469;28;20421;-71
2021/03/20 09:14:15;;;;;;;0.40;0.30;;;;;;;3.57;47.84;102326.16;5076137;28;20490;-67
2021/03/20 09:16:47;;;;;;;2.63;0.77;;;;;;;3.72;47.48;102324.06;5076063;28;20430;-69
2021/03/20 09:19:19;;;;;;;0.40;0.30;;;;;;;3.92;47.53;102323.97;5076067;28;20429;-71
2021/03/20 09:21:47;;;;;;;0.40;0.30;;;;;;;3.96;46.51;102327.88;5076244;28;20443;-70
2021/03/20 09:24:18;;;;;;;0.40;0.30;;;;;;;3.95;45.88;102325.41;5075597;28;21306;-71
2021/03/20 09:26:47;;;;;;;0.40;0.30;;;;;;;4.02;46.66;102334.22;5076200;28;20441;-71
2021/03/20 09:29:19;;;;;;;0.40;0.20;;;;;;;3.96;46.28;102332.41;5075933;28;20814;-71
2021/03/20 09:32:11;;;;;;;0.40;0.30;;;;;;;3.86;46.65;102330.19;5075960;28;20433;-71
2021/03/20 09:34:42;;;;;;;0.40;0.30;;;;;;;4.05;46.64;102331.94;5075870;28;20449;-71
2021/03/20 09:37:57;;;;;;;0.40;0.30;;;;;;;4.17;47.64;102331.28;5075344;28;20465;-71
2021/03/20 09:40:56;;;;;;;0.40;0.30;;;;;;;4.22;46.96;102339.50;5075685;28;20781;-71
2021/03/20 09:43:38;;;;;;;0.40;0.30;;;;;;;4.09;47.03;102332.34;5075349;28;20461;-71
2021/03/20 09:46:34;;;;;;;0.40;0.30;;;;;;;4.23;46.18;102330.41;5075575;28;20836;-71
2021/03/20 09:49:01;;;;;;;0.40;0.30;;;;;;;3.98;45.45;102328.47;5075472;28;20505;-71
2021/03/20 09:51:46;;;;;;;0.40;0.33;;;;;;;4.00;45.92;102320.22;5075539;28;20456;-70
2021/03/20 09:54:42;;;;;;;0.40;0.30;;;;;;;4.11;45.85;102322.22;5062997;28;20446;-71
2021/03/20 09:57:46;;;;;;;0.40;0.20;;;;;;;4.10;45.89;102317.06;5055332;28;20462;-68
2021/03/20 10:00:14;;;;;;;0.40;0.30;;;;;;;4.40;46.58;102312.75;5055343;28;20515;-67
2021/03/20 10:02:53;;;;;;;0.40;0.30;;;;;;;4.66;45.32;102309.06;5055435;28;20445;-68
2021/03/20 10:05:27;;;;;;;0.40;0.30;;;;;;;4.57;44.15;102301.50;5055316;28;20466;-68
2021/03/20 10:07:58;;;;;;;0.50;0.40;;;;;;;4.65;45.38;102307.44;5055128;28;20465;-67
2021/03/20 10:10:50;;;;;;;0.40;0.30;;;;;;;4.67;44.23;102299.16;5055189;28;20423;-67
2021/03/20 10:13:20;;;;;;;0.40;0.30;;;;;;;4.53;44.72;102298.44;5055049;28;20427;-67
2021/03/20 10:16:00;;;;;;;0.40;0.30;;;;;;;4.61;45.19;102300.03;5055065;28;20435;-68
2021/03/20 10:18:44;;;;;;;2.03;0.73;;;;;;;4.73;44.60;102292.88;5054924;28;20883;-67
2021/03/20 10:21:23;;;;;;;0.40;0.30;;;;;;;4.84;44.67;102296.72;5051167;28;20460;-67
2021/03/20 10:23:54;;;;;;;0.60;0.40;;;;;;;4.92;44.16;102304.50;5054637;28;20911;-66
2021/03/20 10:26:37;;;;;;;0.60;0.40;;;;;;;4.65;44.44;102288.63;5054868;28;20477;-68
2021/03/20 10:29:06;;;;;;;0.73;0.40;;;;;;;4.81;43.98;102290.75;5054530;28;20927;-68
2021/03/20 10:31:39;;;;;;;0.40;0.30;;;;;;;4.92;43.95;102291.09;5054185;28;20446;-68
2021/03/20 10:34:08;;;;;;;0.40;0.27;;;;;;;5.25;43.60;102288.88;5054702;28;20431;-68
2021/03/20 10:36:38;;;;;;;0.40;0.30;;;;;;;5.40;42.69;102285.00;5054570;28;20450;-68
2021/03/20 10:39:19;;;;;;;0.50;0.30;;;;;;;5.53;42.45;102287.53;5081329;22;20497;-62
2021/03/20 10:41:47;;;;;;;0.47;0.33;;;;;;;5.64;41.83;102275.22;5074411;28;20433;-61
2021/03/20 10:44:16;;;;;;;0.50;0.30;;;;;;;5.46;41.95;102286.78;5074277;28;20449;-63
2021/03/20 10:46:44;;;;;;;0.40;0.30;;;;;;;5.52;42.67;102275.13;5074500;28;20887;-63
2021/03/20 10:49:18;;;;;;;0.60;0.60;;;;;;;5.72;43.01;102283.78;5074123;28;20458;-63
2021/03/20 10:51:46;;;;;;;0.40;0.30;;;;;;;5.91;41.32;102284.56;5074260;28;20452;-63
2021/03/20 10:54:21;;;;;;;0.60;0.37;;;;;;;5.83;40.76;102280.31;5074263;28;20437;-62
2021/03/20 10:56:50;;;;;;;0.80;0.80;;;;;;;5.89;41.76;102289.38;5074155;28;20436;-63
2021/03/20 10:59:23;;;;;;;0.40;0.30;;;;;;;5.77;40.64;102275.84;5074092;28;20465;-62
2021/03/20 11:01:50;;;;;;;0.40;0.30;;;;;;;5.53;41.40;102276.78;5074546;28;20426;-63
2021/03/20 11:04:27;;;;;;;0.40;0.30;;;;;;;5.42;41.40;102264.91;5074553;28;20481;-63
2021/03/20 11:06:55;;;;;;;0.40;0.30;;;;;;;5.25;41.23;102266.56;5073989;28;20802;-62
2021/03/20 11:09:24;;;;;;;0.40;0.27;;;;;;;5.32;41.83;102261.94;5073927;28;20514;-63
2021/03/20 11:11:59;;;;;;;0.40;0.30;;;;;;;5.11;41.87;102247.09;5073781;28;20583;-62
2021/03/20 11:14:25;;;;;;;0.80;0.80;;;;;;;5.52;42.03;102248.25;5073487;28;20898;-62
2021/03/20 11:16:57;;;;;;;0.40;0.30;;;;;;;5.76;41.63;102250.03;5073775;28;20452;-62
2021/03/20 11:19:29;;;;;;;0.50;0.40;;;;;;;5.79;40.89;102246.03;5073737;28;20465;-62
2021/03/20 11:22:00;;;;;;;0.40;0.30;;;;;;;5.68;41.95;102249.53;5073645;28;20426;-63
2021/03/20 11:24:33;;;;;;;1.53;0.80;;;;;;;5.85;40.89;102247.03;5074242;28;20469;-62
2021/03/20 11:27:14;;;;;;;0.80;0.50;;;;;;;5.91;40.62;102232.66;5074063;28;20433;-62
2021/03/20 11:29:41;;;;;;;0.63;0.60;;;;;;;5.93;40.40;102241.31;5073879;28;20465;-62
2021/03/20 11:32:20;;;;;;;0.40;0.20;;;;;;;5.98;40.32;102250.38;5073547;28;20495;-63
2021/03/20 11:34:53;;;;;;;1.23;0.90;;;;;;;5.90;40.47;102239.91;5072882;28;20425;-63
2021/03/20 11:37:24;;;;;;;0.40;0.30;;;;;;;5.77;39.92;102240.91;5073347;28;20457;-62
2021/03/20 11:39:53;;;;;;;1.53;0.40;;;;;;;5.86;40.33;102232.53;5072837;28;20488;-62
2021/03/20 11:42:24;;;;;;;0.40;0.30;;;;;;;6.32;41.20;102251.50;5073379;28;20441;-62
2021/03/20 11:44:51;;;;;;;0.43;0.33;;;;;;;6.28;40.58;102228.78;5073291;28;20465;-61
2021/03/20 11:47:22;;;;;;;0.40;0.30;;;;;;;6.61;40.70;102227.44;5073388;28;20491;-61
2021/03/20 11:49:51;;;;;;;0.50;0.50;;;;;;;6.48;40.33;102230.34;5073221;28;20461;-63
2021/03/20 11:52:20;;;;;;;0.40;0.30;;;;;;;6.54;40.64;102218.63;5073255;28;20457;-62
2021/03/20 11:54:55;;;;;;;0.40;0.40;;;;;;;6.74;40.81;102208.34;5073087;28;20953;-62
2021/03/20 11:57:32;;;;;;;0.40;0.30;;;;;;;7.38;40.68;102212.91;5073203;28;20439;-62
2021/03/20 11:59:59;;;;;;;0.53;0.47;;;;;;;7.89;38.18;102205.78;5073114;28;20461;-62